Square Butte, Montana
Current Conditions -  °F | °C
As of 2:56 PM on Sunday 21 Dec 2014 (Local Time) from KGFA Reporting Station
Overcast Overcast  
Wind Chill: 39°   Ceiling: 9000
Heat Index: 46°   Visibility: 10mi
Dew Point: 22°   Wind: 20mph
Humidity: 38%   Direction: 270°W
Pressure: 29.5"   Gusts: 24mph
Location:  47.5886°N, 110.344°W
Report Text: KGFA 212156Z AUTO 27017G21KT 10SM OVC090 08/M06 A2950 RMK AO2 SLP005 T00791056
Loading
Personal Weather Stations






























Interactive Weather Map New forecast layout! Learn more

10-Day Weather Forecast

Advertisements
Track Severe Weather on mobile